sensor_id;sensor_type;location;lat;lon;timestamp;temperature;humidity
19168;DHT22;9716;53.114;18.040;2024-02-28T00:02:13;8.00;99.90
19168;DHT22;9716;53.114;18.040;2024-02-28T00:05:05;8.00;99.90
19168;DHT22;9716;53.114;18.040;2024-02-28T00:07:35;7.90;99.90
19168;DHT22;9716;53.114;18.040;2024-02-28T00:10:04;7.90;99.90
19168;DHT22;9716;53.114;18.040;2024-02-28T00:12:33;7.90;99.90
19168;DHT22;9716;53.114;18.040;2024-02-28T00:15:04;7.90;99.90
19168;DHT22;9716;53.114;18.040;2024-02-28T00:17:35;7.90;99.90
19168;DHT22;9716;53.114;18.040;2024-02-28T00:20:05;7.90;99.90
19168;DHT22;9716;53.114;18.040;2024-02-28T00:22:36;7.90;99.90
19168;DHT22;9716;53.114;18.040;2024-02-28T00:25:05;7.90;99.90
19168;DHT22;9716;53.114;18.040;2024-02-28T00:27:35;7.90;99.90
19168;DHT22;9716;53.114;18.040;2024-02-28T00:30:04;7.90;99.90
19168;DHT22;9716;53.114;18.040;2024-02-28T00:32:34;7.90;99.90
19168;DHT22;9716;53.114;18.040;2024-02-28T00:35:03;7.90;99.90
19168;DHT22;9716;53.114;18.040;2024-02-28T00:37:32;7.80;99.90
19168;DHT22;9716;53.114;18.040;2024-02-28T00:40:02;7.90;99.90
19168;DHT22;9716;53.114;18.040;2024-02-28T00:42:31;7.90;99.90
19168;DHT22;9716;53.114;18.040;2024-02-28T00:45:00;7.90;99.90
19168;DHT22;9716;53.114;18.040;2024-02-28T00:47:30;7.80;99.90
19168;DHT22;9716;53.114;18.040;2024-02-28T00:49:59;7.80;99.90
19168;DHT22;9716;53.114;18.040;2024-02-28T00:52:30;7.80;99.90
19168;DHT22;9716;53.114;18.040;2024-02-28T00:54:59;7.80;99.90
19168;DHT22;9716;53.114;18.040;2024-02-28T00:57:30;7.80;99.90
19168;DHT22;9716;53.114;18.040;2024-02-28T00:59:59;7.80;99.90
19168;DHT22;9716;53.114;18.040;2024-02-28T01:02:28;7.80;99.90
19168;DHT22;9716;53.114;18.040;2024-02-28T01:04:56;7.80;99.90
19168;DHT22;9716;53.114;18.040;2024-02-28T01:07:25;7.80;99.90
19168;DHT22;9716;53.114;18.040;2024-02-28T01:09:54;7.80;99.90
19168;DHT22;9716;53.114;18.040;2024-02-28T01:12:22;7.80;99.90
19168;DHT22;9716;53.114;18.040;2024-02-28T01:14:53;7.80;99.90
19168;DHT22;9716;53.114;18.040;2024-02-28T01:17:21;7.80;99.90
19168;DHT22;9716;53.114;18.040;2024-02-28T01:19:50;7.80;99.90
19168;DHT22;9716;53.114;18.040;2024-02-28T01:22:18;7.80;99.90
19168;DHT22;9716;53.114;18.040;2024-02-28T01:24:47;7.80;99.90
19168;DHT22;9716;53.114;18.040;2024-02-28T01:27:16;7.80;99.90
19168;DHT22;9716;53.114;18.040;2024-02-28T01:29:45;7.70;99.90
19168;DHT22;9716;53.114;18.040;2024-02-28T01:32:15;7.70;99.90
19168;DHT22;9716;53.114;18.040;2024-02-28T01:34:43;7.70;99.90
19168;DHT22;9716;53.114;18.040;2024-02-28T01:37:13;7.70;99.90
19168;DHT22;9716;53.114;18.040;2024-02-28T01:39:42;7.70;99.90
19168;DHT22;9716;53.114;18.040;2024-02-28T01:42:10;7.70;99.90
19168;DHT22;9716;53.114;18.040;2024-02-28T01:44:43;7.70;99.90
19168;DHT22;9716;53.114;18.040;2024-02-28T01:47:12;7.70;99.90
19168;DHT22;9716;53.114;18.040;2024-02-28T01:49:42;7.70;99.90
19168;DHT22;9716;53.114;18.040;2024-02-28T01:52:12;7.70;99.90
19168;DHT22;9716;53.114;18.040;2024-02-28T01:54:41;7.70;99.90
19168;DHT22;9716;53.114;18.040;2024-02-28T01:57:10;7.70;99.90
19168;DHT22;9716;53.114;18.040;2024-02-28T01:59:40;7.70;99.90
19168;DHT22;9716;53.114;18.040;2024-02-28T02:02:09;7.70;99.90
19168;DHT22;9716;53.114;18.040;2024-02-28T02:04:38;7.70;99.90
19168;DHT22;9716;53.114;18.040;2024-02-28T02:07:10;7.70;99.90
19168;DHT22;9716;53.114;18.040;2024-02-28T02:09:39;7.70;99.90
19168;DHT22;9716;53.114;18.040;2024-02-28T02:12:08;7.70;99.90
19168;DHT22;9716;53.114;18.040;2024-02-28T02:14:37;7.70;99.90
19168;DHT22;9716;53.114;18.040;2024-02-28T02:17:08;7.70;99.90
19168;DHT22;9716;53.114;18.040;2024-02-28T02:19:37;7.70;99.90
19168;DHT22;9716;53.114;18.040;2024-02-28T02:22:05;7.70;99.90
19168;DHT22;9716;53.114;18.040;2024-02-28T02:24:38;7.70;99.90
19168;DHT22;9716;53.114;18.040;2024-02-28T02:27:06;7.60;99.90
19168;DHT22;9716;53.114;18.040;2024-02-28T02:29:35;7.70;99.90
19168;DHT22;9716;53.114;18.040;2024-02-28T02:32:04;7.70;99.90
19168;DHT22;9716;53.114;18.040;2024-02-28T02:34:34;7.60;99.90
19168;DHT22;9716;53.114;18.040;2024-02-28T02:37:03;7.60;99.90
19168;DHT22;9716;53.114;18.040;2024-02-28T02:39:32;7.60;99.90
19168;DHT22;9716;53.114;18.040;2024-02-28T02:42:02;7.60;99.90
19168;DHT22;9716;53.114;18.040;2024-02-28T02:44:31;7.60;99.90
19168;DHT22;9716;53.114;18.040;2024-02-28T02:46:59;7.60;99.90
19168;DHT22;9716;53.114;18.040;2024-02-28T02:49:28;7.60;99.90
19168;DHT22;9716;53.114;18.040;2024-02-28T02:51:56;7.60;99.90
19168;DHT22;9716;53.114;18.040;2024-02-28T02:54:25;7.60;99.90
19168;DHT22;9716;53.114;18.040;2024-02-28T02:56:53;7.60;99.90
19168;DHT22;9716;53.114;18.040;2024-02-28T02:59:24;7.60;99.90
19168;DHT22;9716;53.114;18.040;2024-02-28T03:01:52;7.60;99.90
19168;DHT22;9716;53.114;18.040;2024-02-28T03:04:21;7.60;99.90
19168;DHT22;9716;53.114;18.040;2024-02-28T03:06:50;7.60;99.90
19168;DHT22;9716;53.114;18.040;2024-02-28T03:09:18;7.60;99.90
19168;DHT22;9716;53.114;18.040;2024-02-28T03:11:47;7.60;99.90
19168;DHT22;9716;53.114;18.040;2024-02-28T03:14:16;7.50;99.90
19168;DHT22;9716;53.114;18.040;2024-02-28T03:16:47;7.50;99.90
19168;DHT22;9716;53.114;18.040;2024-02-28T03:19:16;7.50;99.90
19168;DHT22;9716;53.114;18.040;2024-02-28T03:21:45;7.50;99.90
19168;DHT22;9716;53.114;18.040;2024-02-28T03:24:14;7.50;99.90
19168;DHT22;9716;53.114;18.040;2024-02-28T03:26:42;7.60;99.90
19168;DHT22;9716;53.114;18.040;2024-02-28T03:29:11;7.50;99.90
19168;DHT22;9716;53.114;18.040;2024-02-28T03:31:40;7.50;99.90
19168;DHT22;9716;53.114;18.040;2024-02-28T03:34:10;7.50;99.90
19168;DHT22;9716;53.114;18.040;2024-02-28T03:36:39;7.40;99.90
19168;DHT22;9716;53.114;18.040;2024-02-28T03:39:08;7.40;99.90
19168;DHT22;9716;53.114;18.040;2024-02-28T03:41:36;7.40;99.90
19168;DHT22;9716;53.114;18.040;2024-02-28T03:44:05;7.40;99.90
19168;DHT22;9716;53.114;18.040;2024-02-28T03:46:34;7.40;99.90
19168;DHT22;9716;53.114;18.040;2024-02-28T03:49:03;7.40;99.90
19168;DHT22;9716;53.114;18.040;2024-02-28T03:51:39;7.40;99.90
19168;DHT22;9716;53.114;18.040;2024-02-28T03:54:08;7.40;99.90
19168;DHT22;9716;53.114;18.040;2024-02-28T03:56:37;7.40;99.90
19168;DHT22;9716;53.114;18.040;2024-02-28T03:59:06;7.40;99.90
19168;DHT22;9716;53.114;18.040;2024-02-28T04:01:34;7.40;99.90
19168;DHT22;9716;53.114;18.040;2024-02-28T04:04:03;7.40;99.90
19168;DHT22;9716;53.114;18.040;2024-02-28T04:06:33;7.40;99.90
19168;DHT22;9716;53.114;18.040;2024-02-28T04:09:02;7.40;99.90
19168;DHT22;9716;53.114;18.040;2024-02-28T04:11:31;7.40;99.90
19168;DHT22;9716;53.114;18.040;2024-02-28T04:14:01;7.30;99.90
19168;DHT22;9716;53.114;18.040;2024-02-28T04:16:30;7.30;99.90
19168;DHT22;9716;53.114;18.040;2024-02-28T04:18:59;7.30;99.90
19168;DHT22;9716;53.114;18.040;2024-02-28T04:21:27;7.30;99.90
19168;DHT22;9716;53.114;18.040;2024-02-28T04:23:57;7.30;99.90
19168;DHT22;9716;53.114;18.040;2024-02-28T04:26:26;7.30;99.90
19168;DHT22;9716;53.114;18.040;2024-02-28T04:28:55;7.30;99.90
19168;DHT22;9716;53.114;18.040;2024-02-28T04:31:23;7.30;99.90
19168;DHT22;9716;53.114;18.040;2024-02-28T04:33:52;7.30;99.90
19168;DHT22;9716;53.114;18.040;2024-02-28T04:36:20;7.30;99.90
19168;DHT22;9716;53.114;18.040;2024-02-28T04:38:49;7.30;99.90
19168;DHT22;9716;53.114;18.040;2024-02-28T04:41:19;7.30;99.90
19168;DHT22;9716;53.114;18.040;2024-02-28T04:43:48;7.30;99.90
19168;DHT22;9716;53.114;18.040;2024-02-28T04:46:16;7.30;99.90
19168;DHT22;9716;53.114;18.040;2024-02-28T04:48:45;7.30;99.90
19168;DHT22;9716;53.114;18.040;2024-02-28T04:51:15;7.30;99.90
19168;DHT22;9716;53.114;18.040;2024-02-28T04:53:45;7.30;99.90
19168;DHT22;9716;53.114;18.040;2024-02-28T04:56:13;7.30;99.90
19168;DHT22;9716;53.114;18.040;2024-02-28T04:58:43;7.30;99.90
19168;DHT22;9716;53.114;18.040;2024-02-28T05:01:12;7.30;99.90
19168;DHT22;9716;53.114;18.040;2024-02-28T05:03:43;7.30;99.90
19168;DHT22;9716;53.114;18.040;2024-02-28T05:06:12;7.30;99.90
19168;DHT22;9716;53.114;18.040;2024-02-28T05:08:41;7.30;99.90
19168;DHT22;9716;53.114;18.040;2024-02-28T05:11:09;7.40;99.90
19168;DHT22;9716;53.114;18.040;2024-02-28T05:13:38;7.30;99.90
19168;DHT22;9716;53.114;18.040;2024-02-28T05:16:13;7.30;99.90
19168;DHT22;9716;53.114;18.040;2024-02-28T05:18:43;7.30;99.90
19168;DHT22;9716;53.114;18.040;2024-02-28T05:21:12;7.30;99.90
19168;DHT22;9716;53.114;18.040;2024-02-28T05:23:41;7.30;99.90
19168;DHT22;9716;53.114;18.040;2024-02-28T05:29:06;7.30;99.90
19168;DHT22;9716;53.114;18.040;2024-02-28T05:31:36;7.30;99.90
19168;DHT22;9716;53.114;18.040;2024-02-28T05:34:17;7.20;99.90
19168;DHT22;9716;53.114;18.040;2024-02-28T05:36:46;7.20;99.90
19168;DHT22;9716;53.114;18.040;2024-02-28T05:39:16;7.30;99.90
19168;DHT22;9716;53.114;18.040;2024-02-28T05:41:44;7.20;99.90
19168;DHT22;9716;53.114;18.040;2024-02-28T05:44:14;7.30;99.90
19168;DHT22;9716;53.114;18.040;2024-02-28T05:46:44;7.20;99.90
19168;DHT22;9716;53.114;18.040;2024-02-28T05:49:13;7.20;99.90
19168;DHT22;9716;53.114;18.040;2024-02-28T05:51:41;7.20;99.90
19168;DHT22;9716;53.114;18.040;2024-02-28T05:54:10;7.20;99.90
19168;DHT22;9716;53.114;18.040;2024-02-28T05:56:39;7.20;99.90
19168;DHT22;9716;53.114;18.040;2024-02-28T05:59:08;7.20;99.90
19168;DHT22;9716;53.114;18.040;2024-02-28T06:01:37;7.20;99.90
19168;DHT22;9716;53.114;18.040;2024-02-28T06:04:09;7.20;99.90
19168;DHT22;9716;53.114;18.040;2024-02-28T06:06:38;7.20;99.90
19168;DHT22;9716;53.114;18.040;2024-02-28T06:09:07;7.20;99.90
19168;DHT22;9716;53.114;18.040;2024-02-28T06:11:36;7.20;99.90
19168;DHT22;9716;53.114;18.040;2024-02-28T06:14:05;7.20;99.90
19168;DHT22;9716;53.114;18.040;2024-02-28T06:16:33;7.20;99.90
19168;DHT22;9716;53.114;18.040;2024-02-28T06:19:02;7.20;99.90
19168;DHT22;9716;53.114;18.040;2024-02-28T06:21:34;7.20;99.90
19168;DHT22;9716;53.114;18.040;2024-02-28T06:24:03;7.20;99.90
19168;DHT22;9716;53.114;18.040;2024-02-28T06:26:31;7.20;99.90
19168;DHT22;9716;53.114;18.040;2024-02-28T06:29:00;7.30;99.90
19168;DHT22;9716;53.114;18.040;2024-02-28T06:31:31;7.30;99.90
19168;DHT22;9716;53.114;18.040;2024-02-28T06:34:00;7.30;99.90
19168;DHT22;9716;53.114;18.040;2024-02-28T06:36:29;7.30;99.90
19168;DHT22;9716;53.114;18.040;2024-02-28T06:39:00;7.40;99.90
19168;DHT22;9716;53.114;18.040;2024-02-28T06:41:28;7.30;99.90
19168;DHT22;9716;53.114;18.040;2024-02-28T06:43:57;7.30;99.90
19168;DHT22;9716;53.114;18.040;2024-02-28T06:46:26;7.40;99.90
19168;DHT22;9716;53.114;18.040;2024-02-28T06:48:55;7.30;99.90
19168;DHT22;9716;53.114;18.040;2024-02-28T06:51:23;7.40;99.90
19168;DHT22;9716;53.114;18.040;2024-02-28T06:53:52;7.40;99.90
19168;DHT22;9716;53.114;18.040;2024-02-28T06:56:22;7.40;99.90
19168;DHT22;9716;53.114;18.040;2024-02-28T06:58:51;7.40;99.90
19168;DHT22;9716;53.114;18.040;2024-02-28T07:01:19;7.40;99.90
19168;DHT22;9716;53.114;18.040;2024-02-28T07:03:48;7.40;99.90
19168;DHT22;9716;53.114;18.040;2024-02-28T07:06:17;7.50;99.90
19168;DHT22;9716;53.114;18.040;2024-02-28T07:08:46;7.40;99.90
19168;DHT22;9716;53.114;18.040;2024-02-28T07:11:15;7.40;99.90
19168;DHT22;9716;53.114;18.040;2024-02-28T07:13:45;7.40;99.90
19168;DHT22;9716;53.114;18.040;2024-02-28T07:16:13;7.50;99.90
19168;DHT22;9716;53.114;18.040;2024-02-28T07:18:42;7.50;99.90
19168;DHT22;9716;53.114;18.040;2024-02-28T07:21:11;7.50;99.90
19168;DHT22;9716;53.114;18.040;2024-02-28T07:23:40;7.50;99.90
19168;DHT22;9716;53.114;18.040;2024-02-28T07:26:14;7.50;99.90
19168;DHT22;9716;53.114;18.040;2024-02-28T07:28:54;7.50;99.90
19168;DHT22;9716;53.114;18.040;2024-02-28T07:31:23;7.60;99.90
19168;DHT22;9716;53.114;18.040;2024-02-28T07:33:52;7.60;99.90
19168;DHT22;9716;53.114;18.040;2024-02-28T07:36:21;7.60;99.90
19168;DHT22;9716;53.114;18.040;2024-02-28T07:38:50;7.60;99.90
19168;DHT22;9716;53.114;18.040;2024-02-28T07:41:19;7.60;99.90
19168;DHT22;9716;53.114;18.040;2024-02-28T07:43:49;7.70;99.90
19168;DHT22;9716;53.114;18.040;2024-02-28T07:46:19;7.80;99.90
19168;DHT22;9716;53.114;18.040;2024-02-28T07:48:47;7.80;99.90
19168;DHT22;9716;53.114;18.040;2024-02-28T07:51:18;7.80;99.90
19168;DHT22;9716;53.114;18.040;2024-02-28T07:54:02;7.90;99.90
19168;DHT22;9716;53.114;18.040;2024-02-28T07:56:30;7.90;99.90
19168;DHT22;9716;53.114;18.040;2024-02-28T07:58:59;8.00;99.90
19168;DHT22;9716;53.114;18.040;2024-02-28T08:01:30;8.00;99.90
19168;DHT22;9716;53.114;18.040;2024-02-28T08:03:59;8.10;99.90
19168;DHT22;9716;53.114;18.040;2024-02-28T08:06:30;8.00;99.90
19168;DHT22;9716;53.114;18.040;2024-02-28T08:09:00;8.10;99.90
19168;DHT22;9716;53.114;18.040;2024-02-28T08:11:31;8.20;99.90
19168;DHT22;9716;53.114;18.040;2024-02-28T08:14:00;8.20;99.90
19168;DHT22;9716;53.114;18.040;2024-02-28T08:16:30;8.20;99.90
19168;DHT22;9716;53.114;18.040;2024-02-28T08:18:59;8.30;99.90
19168;DHT22;9716;53.114;18.040;2024-02-28T08:21:28;8.30;99.90
19168;DHT22;9716;53.114;18.040;2024-02-28T08:23:56;8.40;99.90
19168;DHT22;9716;53.114;18.040;2024-02-28T08:26:25;8.50;99.90
19168;DHT22;9716;53.114;18.040;2024-02-28T08:28:54;8.40;99.90
19168;DHT22;9716;53.114;18.040;2024-02-28T08:31:22;8.40;99.90
19168;DHT22;9716;53.114;18.040;2024-02-28T08:33:53;8.50;99.90
19168;DHT22;9716;53.114;18.040;2024-02-28T08:36:22;8.50;99.90
19168;DHT22;9716;53.114;18.040;2024-02-28T08:38:51;8.50;99.90
19168;DHT22;9716;53.114;18.040;2024-02-28T08:41:20;8.60;99.90
19168;DHT22;9716;53.114;18.040;2024-02-28T08:43:49;8.60;99.90
19168;DHT22;9716;53.114;18.040;2024-02-28T08:46:17;8.70;99.90
19168;DHT22;9716;53.114;18.040;2024-02-28T08:48:46;8.70;99.90
19168;DHT22;9716;53.114;18.040;2024-02-28T08:51:16;8.70;99.90
19168;DHT22;9716;53.114;18.040;2024-02-28T08:53:45;8.80;99.90
19168;DHT22;9716;53.114;18.040;2024-02-28T08:56:13;8.90;99.90
19168;DHT22;9716;53.114;18.040;2024-02-28T08:58:42;8.90;99.90
19168;DHT22;9716;53.114;18.040;2024-02-28T09:01:14;9.00;99.90
19168;DHT22;9716;53.114;18.040;2024-02-28T09:03:44;9.00;99.90
19168;DHT22;9716;53.114;18.040;2024-02-28T09:06:12;9.00;99.90
19168;DHT22;9716;53.114;18.040;2024-02-28T09:08:44;9.00;99.90
19168;DHT22;9716;53.114;18.040;2024-02-28T09:11:13;9.00;99.90
19168;DHT22;9716;53.114;18.040;2024-02-28T09:13:42;9.00;99.90
19168;DHT22;9716;53.114;18.040;2024-02-28T09:16:10;9.00;99.90
19168;DHT22;9716;53.114;18.040;2024-02-28T09:18:40;9.10;99.90
19168;DHT22;9716;53.114;18.040;2024-02-28T09:21:09;9.10;99.90
19168;DHT22;9716;53.114;18.040;2024-02-28T09:23:38;9.10;99.90
19168;DHT22;9716;53.114;18.040;2024-02-28T09:26:08;9.10;99.90
19168;DHT22;9716;53.114;18.040;2024-02-28T09:28:38;9.10;99.90
19168;DHT22;9716;53.114;18.040;2024-02-28T09:31:09;9.10;99.90
19168;DHT22;9716;53.114;18.040;2024-02-28T09:33:39;9.10;99.90
19168;DHT22;9716;53.114;18.040;2024-02-28T09:36:07;9.10;99.90
19168;DHT22;9716;53.114;18.040;2024-02-28T09:38:36;9.20;99.90
19168;DHT22;9716;53.114;18.040;2024-02-28T09:41:05;9.20;99.90
19168;DHT22;9716;53.114;18.040;2024-02-28T09:43:40;9.30;99.90
19168;DHT22;9716;53.114;18.040;2024-02-28T09:46:10;9.40;99.90
19168;DHT22;9716;53.114;18.040;2024-02-28T09:48:41;9.40;99.90
19168;DHT22;9716;53.114;18.040;2024-02-28T09:51:12;9.50;99.90
19168;DHT22;9716;53.114;18.040;2024-02-28T09:53:42;9.50;99.90
19168;DHT22;9716;53.114;18.040;2024-02-28T09:56:31;9.50;99.90
19168;DHT22;9716;53.114;18.040;2024-02-28T09:59:02;9.50;99.90
19168;DHT22;9716;53.114;18.040;2024-02-28T10:01:33;9.50;99.90
19168;DHT22;9716;53.114;18.040;2024-02-28T10:04:05;9.50;99.90
19168;DHT22;9716;53.114;18.040;2024-02-28T10:06:33;9.50;99.90
19168;DHT22;9716;53.114;18.040;2024-02-28T10:09:02;9.50;99.90
19168;DHT22;9716;53.114;18.040;2024-02-28T10:11:32;9.50;99.90
19168;DHT22;9716;53.114;18.040;2024-02-28T10:14:04;9.50;99.90
19168;DHT22;9716;53.114;18.040;2024-02-28T10:16:33;9.50;99.90
19168;DHT22;9716;53.114;18.040;2024-02-28T10:19:01;9.50;99.90
19168;DHT22;9716;53.114;18.040;2024-02-28T10:21:30;9.60;99.90
19168;DHT22;9716;53.114;18.040;2024-02-28T10:24:00;9.60;99.90
19168;DHT22;9716;53.114;18.040;2024-02-28T10:26:31;9.60;99.90
19168;DHT22;9716;53.114;18.040;2024-02-28T10:29:07;9.70;99.90
19168;DHT22;9716;53.114;18.040;2024-02-28T10:31:38;9.70;99.90
19168;DHT22;9716;53.114;18.040;2024-02-28T10:34:07;9.70;99.90
19168;DHT22;9716;53.114;18.040;2024-02-28T10:36:37;9.70;99.90
19168;DHT22;9716;53.114;18.040;2024-02-28T10:39:06;9.70;99.90
19168;DHT22;9716;53.114;18.040;2024-02-28T10:41:38;9.80;99.90
19168;DHT22;9716;53.114;18.040;2024-02-28T10:44:08;9.80;99.90
19168;DHT22;9716;53.114;18.040;2024-02-28T10:46:38;9.80;99.90
19168;DHT22;9716;53.114;18.040;2024-02-28T10:49:09;9.80;99.90
19168;DHT22;9716;53.114;18.040;2024-02-28T10:51:39;9.80;99.90
19168;DHT22;9716;53.114;18.040;2024-02-28T10:54:09;9.70;99.90
19168;DHT22;9716;53.114;18.040;2024-02-28T10:56:41;9.70;99.90
19168;DHT22;9716;53.114;18.040;2024-02-28T10:59:12;9.70;99.90
19168;DHT22;9716;53.114;18.040;2024-02-28T11:01:42;9.70;99.90
19168;DHT22;9716;53.114;18.040;2024-02-28T11:04:14;9.70;99.90
19168;DHT22;9716;53.114;18.040;2024-02-28T11:06:48;9.70;99.90
19168;DHT22;9716;53.114;18.040;2024-02-28T11:09:20;9.70;99.90
19168;DHT22;9716;53.114;18.040;2024-02-28T11:11:51;9.70;99.90
19168;DHT22;9716;53.114;18.040;2024-02-28T11:14:21;9.70;99.90
19168;DHT22;9716;53.114;18.040;2024-02-28T11:17:02;9.80;99.90
19168;DHT22;9716;53.114;18.040;2024-02-28T11:19:32;9.80;99.90
19168;DHT22;9716;53.114;18.040;2024-02-28T11:22:04;9.90;99.90
19168;DHT22;9716;53.114;18.040;2024-02-28T11:24:36;9.90;99.90
19168;DHT22;9716;53.114;18.040;2024-02-28T11:27:05;9.90;99.90
19168;DHT22;9716;53.114;18.040;2024-02-28T11:29:36;10.00;99.90
19168;DHT22;9716;53.114;18.040;2024-02-28T11:32:05;10.00;99.90
19168;DHT22;9716;53.114;18.040;2024-02-28T11:34:34;10.00;99.90
19168;DHT22;9716;53.114;18.040;2024-02-28T11:37:03;10.00;99.90
19168;DHT22;9716;53.114;18.040;2024-02-28T11:39:32;10.00;99.90
19168;DHT22;9716;53.114;18.040;2024-02-28T11:42:11;10.10;99.90
19168;DHT22;9716;53.114;18.040;2024-02-28T11:44:42;10.10;99.90
19168;DHT22;9716;53.114;18.040;2024-02-28T11:47:11;10.20;99.90
19168;DHT22;9716;53.114;18.040;2024-02-28T11:49:40;10.20;99.90
19168;DHT22;9716;53.114;18.040;2024-02-28T11:52:09;10.30;99.90
19168;DHT22;9716;53.114;18.040;2024-02-28T11:54:41;10.30;99.90
19168;DHT22;9716;53.114;18.040;2024-02-28T11:57:11;10.30;99.90
19168;DHT22;9716;53.114;18.040;2024-02-28T11:59:43;10.30;99.90
19168;DHT22;9716;53.114;18.040;2024-02-28T12:02:15;10.30;99.90
19168;DHT22;9716;53.114;18.040;2024-02-28T12:04:45;10.40;99.90
19168;DHT22;9716;53.114;18.040;2024-02-28T12:07:17;10.40;99.90
19168;DHT22;9716;53.114;18.040;2024-02-28T12:09:46;10.40;99.90
19168;DHT22;9716;53.114;18.040;2024-02-28T12:12:16;10.40;99.90
19168;DHT22;9716;53.114;18.040;2024-02-28T12:14:47;10.50;99.90
19168;DHT22;9716;53.114;18.040;2024-02-28T12:17:36;10.50;99.90
19168;DHT22;9716;53.114;18.040;2024-02-28T12:20:11;10.50;99.90
19168;DHT22;9716;53.114;18.040;2024-02-28T12:22:39;10.40;99.90
19168;DHT22;9716;53.114;18.040;2024-02-28T12:25:08;10.40;99.90
19168;DHT22;9716;53.114;18.040;2024-02-28T12:27:37;10.50;99.90
19168;DHT22;9716;53.114;18.040;2024-02-28T12:30:08;10.40;99.90
19168;DHT22;9716;53.114;18.040;2024-02-28T12:32:37;10.50;99.90
19168;DHT22;9716;53.114;18.040;2024-02-28T12:35:12;10.50;99.90
19168;DHT22;9716;53.114;18.040;2024-02-28T12:37:40;10.50;99.90
19168;DHT22;9716;53.114;18.040;2024-02-28T12:40:10;10.50;99.90
19168;DHT22;9716;53.114;18.040;2024-02-28T12:42:38;10.50;99.90
19168;DHT22;9716;53.114;18.040;2024-02-28T12:45:09;10.50;99.90
19168;DHT22;9716;53.114;18.040;2024-02-28T12:47:38;10.50;99.90
19168;DHT22;9716;53.114;18.040;2024-02-28T12:50:08;10.50;99.90
19168;DHT22;9716;53.114;18.040;2024-02-28T12:52:38;10.50;99.90
19168;DHT22;9716;53.114;18.040;2024-02-28T12:55:07;10.50;99.90
19168;DHT22;9716;53.114;18.040;2024-02-28T12:57:36;10.60;99.90
19168;DHT22;9716;53.114;18.040;2024-02-28T13:00:06;10.60;99.90
19168;DHT22;9716;53.114;18.040;2024-02-28T13:02:36;10.60;99.90
19168;DHT22;9716;53.114;18.040;2024-02-28T13:05:06;10.60;99.90
19168;DHT22;9716;53.114;18.040;2024-02-28T13:07:37;10.60;99.90
19168;DHT22;9716;53.114;18.040;2024-02-28T13:10:07;10.70;99.90
19168;DHT22;9716;53.114;18.040;2024-02-28T13:12:37;10.70;99.90
19168;DHT22;9716;53.114;18.040;2024-02-28T13:15:07;10.70;99.90
19168;DHT22;9716;53.114;18.040;2024-02-28T13:17:37;10.70;99.90
19168;DHT22;9716;53.114;18.040;2024-02-28T13:20:07;10.70;99.90
19168;DHT22;9716;53.114;18.040;2024-02-28T13:22:36;10.70;99.90
19168;DHT22;9716;53.114;18.040;2024-02-28T13:25:05;10.70;99.90
19168;DHT22;9716;53.114;18.040;2024-02-28T13:27:34;10.70;99.90
19168;DHT22;9716;53.114;18.040;2024-02-28T13:30:03;10.60;99.90
19168;DHT22;9716;53.114;18.040;2024-02-28T13:32:32;10.60;99.90
19168;DHT22;9716;53.114;18.040;2024-02-28T13:35:03;10.60;99.90
19168;DHT22;9716;53.114;18.040;2024-02-28T13:37:31;10.50;99.90
19168;DHT22;9716;53.114;18.040;2024-02-28T13:40:00;10.50;99.90
19168;DHT22;9716;53.114;18.040;2024-02-28T13:42:30;10.50;99.90
19168;DHT22;9716;53.114;18.040;2024-02-28T13:44:59;10.50;99.90
19168;DHT22;9716;53.114;18.040;2024-02-28T13:47:28;10.50;99.90
19168;DHT22;9716;53.114;18.040;2024-02-28T13:49:56;10.60;99.90
19168;DHT22;9716;53.114;18.040;2024-02-28T13:52:27;10.70;99.90
19168;DHT22;9716;53.114;18.040;2024-02-28T13:54:56;10.90;99.90
19168;DHT22;9716;53.114;18.040;2024-02-28T13:57:25;11.00;99.90
19168;DHT22;9716;53.114;18.040;2024-02-28T13:59:53;11.10;99.90
19168;DHT22;9716;53.114;18.040;2024-02-28T14:02:22;11.20;99.90
19168;DHT22;9716;53.114;18.040;2024-02-28T14:04:54;11.30;99.90
19168;DHT22;9716;53.114;18.040;2024-02-28T14:07:23;11.40;99.90
19168;DHT22;9716;53.114;18.040;2024-02-28T14:09:53;11.40;99.90
19168;DHT22;9716;53.114;18.040;2024-02-28T14:12:21;11.40;99.90
19168;DHT22;9716;53.114;18.040;2024-02-28T14:14:50;11.50;99.90
19168;DHT22;9716;53.114;18.040;2024-02-28T14:17:19;11.50;99.90
19168;DHT22;9716;53.114;18.040;2024-02-28T14:19:48;11.50;99.90
19168;DHT22;9716;53.114;18.040;2024-02-28T14:22:16;11.50;99.90
19168;DHT22;9716;53.114;18.040;2024-02-28T14:24:45;11.50;99.90
19168;DHT22;9716;53.114;18.040;2024-02-28T14:27:15;11.50;99.90
19168;DHT22;9716;53.114;18.040;2024-02-28T14:29:44;11.60;99.90
19168;DHT22;9716;53.114;18.040;2024-02-28T14:32:15;11.50;99.90
19168;DHT22;9716;53.114;18.040;2024-02-28T14:34:43;11.50;99.90
19168;DHT22;9716;53.114;18.040;2024-02-28T14:37:13;11.40;99.90
19168;DHT22;9716;53.114;18.040;2024-02-28T14:39:42;11.40;99.90
19168;DHT22;9716;53.114;18.040;2024-02-28T14:42:10;11.30;99.90
19168;DHT22;9716;53.114;18.040;2024-02-28T14:44:41;11.30;99.90
19168;DHT22;9716;53.114;18.040;2024-02-28T14:47:09;11.20;99.90
19168;DHT22;9716;53.114;18.040;2024-02-28T14:49:38;11.20;99.90
19168;DHT22;9716;53.114;18.040;2024-02-28T14:52:07;11.10;99.90
19168;DHT22;9716;53.114;18.040;2024-02-28T14:54:39;11.10;99.90
19168;DHT22;9716;53.114;18.040;2024-02-28T14:57:07;11.10;99.90
19168;DHT22;9716;53.114;18.040;2024-02-28T14:59:36;11.00;99.90
19168;DHT22;9716;53.114;18.040;2024-02-28T15:02:06;11.00;99.90
19168;DHT22;9716;53.114;18.040;2024-02-28T15:04:35;10.90;99.90
19168;DHT22;9716;53.114;18.040;2024-02-28T15:07:04;10.90;99.90
19168;DHT22;9716;53.114;18.040;2024-02-28T15:09:33;10.80;99.90
19168;DHT22;9716;53.114;18.040;2024-02-28T15:12:06;10.90;99.90
19168;DHT22;9716;53.114;18.040;2024-02-28T15:14:35;10.80;99.90
19168;DHT22;9716;53.114;18.040;2024-02-28T15:17:05;10.80;99.90
19168;DHT22;9716;53.114;18.040;2024-02-28T15:19:34;10.70;99.90
19168;DHT22;9716;53.114;18.040;2024-02-28T15:22:03;10.70;99.90
19168;DHT22;9716;53.114;18.040;2024-02-28T15:24:33;10.70;99.90
19168;DHT22;9716;53.114;18.040;2024-02-28T15:27:01;10.60;99.90
19168;DHT22;9716;53.114;18.040;2024-02-28T15:29:30;10.60;99.90
19168;DHT22;9716;53.114;18.040;2024-02-28T15:31:59;10.60;99.90
19168;DHT22;9716;53.114;18.040;2024-02-28T15:34:29;10.60;99.90
19168;DHT22;9716;53.114;18.040;2024-02-28T15:36:57;10.60;99.90
19168;DHT22;9716;53.114;18.040;2024-02-28T15:39:26;10.50;99.90
19168;DHT22;9716;53.114;18.040;2024-02-28T15:41:55;10.60;99.90
19168;DHT22;9716;53.114;18.040;2024-02-28T15:44:24;10.50;99.90
19168;DHT22;9716;53.114;18.040;2024-02-28T15:46:52;10.50;99.90
19168;DHT22;9716;53.114;18.040;2024-02-28T15:49:21;10.40;99.90
19168;DHT22;9716;53.114;18.040;2024-02-28T15:52:08;10.30;99.90
19168;DHT22;9716;53.114;18.040;2024-02-28T15:54:37;10.20;99.90
19168;DHT22;9716;53.114;18.040;2024-02-28T15:57:07;10.10;99.90
19168;DHT22;9716;53.114;18.040;2024-02-28T15:59:36;10.00;99.90
19168;DHT22;9716;53.114;18.040;2024-02-28T16:02:09;9.90;99.90